sensor_id;sensor_type;location;lat;lon;timestamp;P1;durP1;ratioP1;P2;durP2;ratioP2
19521;SDS011;9905;52.126;5.596;2023-04-08T00:00:28;17.05;;;15.82;;
19521;SDS011;9905;52.126;5.596;2023-04-08T00:02:55;17.45;;;16.15;;
19521;SDS011;9905;52.126;5.596;2023-04-08T00:05:22;18.45;;;16.95;;
19521;SDS011;9905;52.126;5.596;2023-04-08T00:07:50;18.08;;;16.70;;
19521;SDS011;9905;52.126;5.596;2023-04-08T00:10:17;19.15;;;17.67;;
19521;SDS011;9905;52.126;5.596;2023-04-08T00:12:44;19.08;;;17.48;;
19521;SDS011;9905;52.126;5.596;2023-04-08T00:15:12;19.20;;;17.70;;
19521;SDS011;9905;52.126;5.596;2023-04-08T00:17:39;19.42;;;17.92;;
19521;SDS011;9905;52.126;5.596;2023-04-08T00:20:07;19.08;;;17.70;;
19521;SDS011;9905;52.126;5.596;2023-04-08T00:22:34;19.10;;;17.60;;
19521;SDS011;9905;52.126;5.596;2023-04-08T00:25:03;19.42;;;17.92;;
19521;SDS011;9905;52.126;5.596;2023-04-08T00:27:30;18.92;;;17.52;;
19521;SDS011;9905;52.126;5.596;2023-04-08T00:29:57;19.23;;;17.63;;
19521;SDS011;9905;52.126;5.596;2023-04-08T00:32:25;19.73;;;18.10;;
19521;SDS011;9905;52.126;5.596;2023-04-08T00:34:53;20.38;;;18.77;;
19521;SDS011;9905;52.126;5.596;2023-04-08T00:37:20;20.10;;;18.50;;
19521;SDS011;9905;52.126;5.596;2023-04-08T00:39:47;18.85;;;17.35;;
19521;SDS011;9905;52.126;5.596;2023-04-08T00:42:15;18.77;;;17.42;;
19521;SDS011;9905;52.126;5.596;2023-04-08T00:44:42;18.70;;;17.30;;
19521;SDS011;9905;52.126;5.596;2023-04-08T00:47:10;18.23;;;16.85;;
19521;SDS011;9905;52.126;5.596;2023-04-08T00:49:37;19.30;;;17.77;;
19521;SDS011;9905;52.126;5.596;2023-04-08T00:52:04;19.23;;;17.70;;
19521;SDS011;9905;52.126;5.596;2023-04-08T00:54:31;18.02;;;16.70;;
19521;SDS011;9905;52.126;5.596;2023-04-08T00:56:58;18.23;;;16.92;;
19521;SDS011;9905;52.126;5.596;2023-04-08T00:59:26;18.15;;;16.85;;
19521;SDS011;9905;52.126;5.596;2023-04-08T01:02:00;19.48;;;17.98;;
19521;SDS011;9905;52.126;5.596;2023-04-08T01:04:38;18.92;;;17.42;;
19521;SDS011;9905;52.126;5.596;2023-04-08T01:07:14;19.20;;;17.80;;
19521;SDS011;9905;52.126;5.596;2023-04-08T01:09:44;19.98;;;18.58;;
19521;SDS011;9905;52.126;5.596;2023-04-08T01:12:12;19.10;;;17.73;;
19521;SDS011;9905;52.126;5.596;2023-04-08T01:14:46;19.25;;;17.90;;
19521;SDS011;9905;52.126;5.596;2023-04-08T01:17:15;18.92;;;17.52;;
19521;SDS011;9905;52.126;5.596;2023-04-08T01:19:45;19.75;;;18.10;;
19521;SDS011;9905;52.126;5.596;2023-04-08T01:22:15;19.35;;;17.85;;
19521;SDS011;9905;52.126;5.596;2023-04-08T01:24:56;19.00;;;17.70;;
19521;SDS011;9905;52.126;5.596;2023-04-08T01:27:27;18.95;;;17.55;;
19521;SDS011;9905;52.126;5.596;2023-04-08T01:29:56;18.52;;;17.13;;
19521;SDS011;9905;52.126;5.596;2023-04-08T01:32:24;18.48;;;17.10;;
19521;SDS011;9905;52.126;5.596;2023-04-08T01:34:52;19.20;;;17.70;;
19521;SDS011;9905;52.126;5.596;2023-04-08T01:37:20;20.15;;;18.63;;
19521;SDS011;9905;52.126;5.596;2023-04-08T01:39:48;19.45;;;18.17;;
19521;SDS011;9905;52.126;5.596;2023-04-08T01:42:15;18.25;;;17.05;;
19521;SDS011;9905;52.126;5.596;2023-04-08T01:44:44;19.55;;;18.10;;
19521;SDS011;9905;52.126;5.596;2023-04-08T01:47:12;18.08;;;16.77;;
19521;SDS011;9905;52.126;5.596;2023-04-08T01:49:39;16.95;;;15.75;;
19521;SDS011;9905;52.126;5.596;2023-04-08T01:52:07;17.90;;;16.73;;
19521;SDS011;9905;52.126;5.596;2023-04-08T01:54:35;16.52;;;15.32;;
19521;SDS011;9905;52.126;5.596;2023-04-08T01:57:03;17.05;;;15.82;;
19521;SDS011;9905;52.126;5.596;2023-04-08T01:59:33;17.70;;;16.50;;
19521;SDS011;9905;52.126;5.596;2023-04-08T02:02:02;17.55;;;16.35;;
19521;SDS011;9905;52.126;5.596;2023-04-08T02:04:32;18.17;;;16.90;;
19521;SDS011;9905;52.126;5.596;2023-04-08T02:07:00;16.27;;;15.20;;
19521;SDS011;9905;52.126;5.596;2023-04-08T02:09:27;17.65;;;16.55;;
19521;SDS011;9905;52.126;5.596;2023-04-08T02:11:54;17.63;;;16.42;;
19521;SDS011;9905;52.126;5.596;2023-04-08T02:14:22;16.67;;;15.65;;
19521;SDS011;9905;52.126;5.596;2023-04-08T02:16:51;16.13;;;15.07;;
19521;SDS011;9905;52.126;5.596;2023-04-08T02:19:23;17.42;;;16.25;;
19521;SDS011;9905;52.126;5.596;2023-04-08T02:21:54;17.75;;;16.58;;
19521;SDS011;9905;52.126;5.596;2023-04-08T02:24:24;17.65;;;16.45;;
19521;SDS011;9905;52.126;5.596;2023-04-08T02:26:52;17.17;;;15.98;;
19521;SDS011;9905;52.126;5.596;2023-04-08T02:29:21;16.88;;;15.77;;
19521;SDS011;9905;52.126;5.596;2023-04-08T02:31:48;17.48;;;16.27;;
19521;SDS011;9905;52.126;5.596;2023-04-08T02:34:16;16.50;;;15.50;;
19521;SDS011;9905;52.126;5.596;2023-04-08T02:36:47;17.48;;;16.38;;
19521;SDS011;9905;52.126;5.596;2023-04-08T02:39:15;17.17;;;16.08;;
19521;SDS011;9905;52.126;5.596;2023-04-08T02:41:42;16.50;;;15.38;;
19521;SDS011;9905;52.126;5.596;2023-04-08T02:44:08;17.00;;;15.90;;
19521;SDS011;9905;52.126;5.596;2023-04-08T02:46:35;17.60;;;16.50;;
19521;SDS011;9905;52.126;5.596;2023-04-08T02:49:02;17.90;;;16.70;;
19521;SDS011;9905;52.126;5.596;2023-04-08T02:51:28;16.83;;;15.73;;
19521;SDS011;9905;52.126;5.596;2023-04-08T02:53:57;18.17;;;16.85;;
19521;SDS011;9905;52.126;5.596;2023-04-08T02:56:24;17.40;;;16.17;;
19521;SDS011;9905;52.126;5.596;2023-04-08T02:58:50;17.42;;;16.08;;
19521;SDS011;9905;52.126;5.596;2023-04-08T03:01:17;16.77;;;15.70;;
19521;SDS011;9905;52.126;5.596;2023-04-08T03:03:44;18.50;;;17.20;;
19521;SDS011;9905;52.126;5.596;2023-04-08T03:06:10;18.27;;;16.88;;
19521;SDS011;9905;52.126;5.596;2023-04-08T03:08:37;17.02;;;15.73;;
19521;SDS011;9905;52.126;5.596;2023-04-08T03:11:05;16.77;;;15.57;;
19521;SDS011;9905;52.126;5.596;2023-04-08T03:13:33;17.40;;;16.10;;
19521;SDS011;9905;52.126;5.596;2023-04-08T03:15:59;16.45;;;15.32;;
19521;SDS011;9905;52.126;5.596;2023-04-08T03:18:26;16.90;;;15.60;;
19521;SDS011;9905;52.126;5.596;2023-04-08T03:20:54;18.00;;;16.38;;
19521;SDS011;9905;52.126;5.596;2023-04-08T03:23:21;16.55;;;15.50;;
19521;SDS011;9905;52.126;5.596;2023-04-08T03:25:47;17.83;;;16.40;;
19521;SDS011;9905;52.126;5.596;2023-04-08T03:28:16;16.85;;;15.65;;
19521;SDS011;9905;52.126;5.596;2023-04-08T03:30:42;15.80;;;14.80;;
19521;SDS011;9905;52.126;5.596;2023-04-08T03:33:09;16.13;;;15.02;;
19521;SDS011;9905;52.126;5.596;2023-04-08T03:35:36;16.00;;;14.90;;
19521;SDS011;9905;52.126;5.596;2023-04-08T03:38:03;16.77;;;15.48;;
19521;SDS011;9905;52.126;5.596;2023-04-08T03:40:30;16.20;;;14.88;;
19521;SDS011;9905;52.126;5.596;2023-04-08T03:42:57;16.92;;;15.73;;
19521;SDS011;9905;52.126;5.596;2023-04-08T03:45:25;15.68;;;14.70;;
19521;SDS011;9905;52.126;5.596;2023-04-08T03:47:51;14.85;;;13.95;;
19521;SDS011;9905;52.126;5.596;2023-04-08T03:50:19;15.15;;;14.25;;
19521;SDS011;9905;52.126;5.596;2023-04-08T03:52:46;16.30;;;15.30;;
19521;SDS011;9905;52.126;5.596;2023-04-08T03:55:12;15.55;;;14.52;;
19521;SDS011;9905;52.126;5.596;2023-04-08T03:57:39;15.40;;;14.38;;
19521;SDS011;9905;52.126;5.596;2023-04-08T04:00:06;15.55;;;14.60;;
19521;SDS011;9905;52.126;5.596;2023-04-08T04:02:35;16.23;;;15.23;;
19521;SDS011;9905;52.126;5.596;2023-04-08T04:05:02;14.73;;;13.88;;
19521;SDS011;9905;52.126;5.596;2023-04-08T04:07:29;14.68;;;13.75;;
19521;SDS011;9905;52.126;5.596;2023-04-08T04:09:56;14.05;;;13.15;;
19521;SDS011;9905;52.126;5.596;2023-04-08T04:12:23;12.70;;;11.95;;
19521;SDS011;9905;52.126;5.596;2023-04-08T04:14:50;13.40;;;12.57;;
19521;SDS011;9905;52.126;5.596;2023-04-08T04:17:17;13.65;;;12.85;;
19521;SDS011;9905;52.126;5.596;2023-04-08T04:19:45;13.45;;;12.55;;
19521;SDS011;9905;52.126;5.596;2023-04-08T04:22:12;14.10;;;13.00;;
19521;SDS011;9905;52.126;5.596;2023-04-08T04:24:38;13.48;;;12.68;;
19521;SDS011;9905;52.126;5.596;2023-04-08T04:27:05;14.32;;;13.32;;
19521;SDS011;9905;52.126;5.596;2023-04-08T04:29:32;13.15;;;12.35;;
19521;SDS011;9905;52.126;5.596;2023-04-08T04:31:59;12.63;;;11.90;;
19521;SDS011;9905;52.126;5.596;2023-04-08T04:34:25;11.07;;;10.55;;
19521;SDS011;9905;52.126;5.596;2023-04-08T04:36:53;11.95;;;11.25;;
19521;SDS011;9905;52.126;5.596;2023-04-08T04:39:20;11.55;;;10.95;;
19521;SDS011;9905;52.126;5.596;2023-04-08T04:41:47;11.68;;;11.07;;
19521;SDS011;9905;52.126;5.596;2023-04-08T04:44:14;11.98;;;11.32;;
19521;SDS011;9905;52.126;5.596;2023-04-08T04:46:41;11.50;;;10.93;;
19521;SDS011;9905;52.126;5.596;2023-04-08T04:49:08;12.27;;;11.65;;
19521;SDS011;9905;52.126;5.596;2023-04-08T04:51:34;11.20;;;10.70;;
19521;SDS011;9905;52.126;5.596;2023-04-08T04:54:03;12.00;;;11.50;;
19521;SDS011;9905;52.126;5.596;2023-04-08T04:56:30;11.30;;;10.80;;
19521;SDS011;9905;52.126;5.596;2023-04-08T04:58:56;10.80;;;10.30;;
19521;SDS011;9905;52.126;5.596;2023-04-08T05:01:23;10.73;;;10.23;;
19521;SDS011;9905;52.126;5.596;2023-04-08T05:03:50;12.20;;;11.60;;
19521;SDS011;9905;52.126;5.596;2023-04-08T05:06:17;12.75;;;12.05;;
19521;SDS011;9905;52.126;5.596;2023-04-08T05:08:43;13.00;;;12.13;;
19521;SDS011;9905;52.126;5.596;2023-04-08T05:11:11;12.55;;;11.95;;
19521;SDS011;9905;52.126;5.596;2023-04-08T05:13:38;13.15;;;12.45;;
19521;SDS011;9905;52.126;5.596;2023-04-08T05:16:05;12.25;;;11.65;;
19521;SDS011;9905;52.126;5.596;2023-04-08T05:18:32;12.57;;;11.85;;
19521;SDS011;9905;52.126;5.596;2023-04-08T05:20:59;11.63;;;11.00;;
19521;SDS011;9905;52.126;5.596;2023-04-08T05:23:26;13.27;;;12.40;;
19521;SDS011;9905;52.126;5.596;2023-04-08T05:25:52;12.57;;;11.95;;
19521;SDS011;9905;52.126;5.596;2023-04-08T05:28:21;12.32;;;11.80;;
19521;SDS011;9905;52.126;5.596;2023-04-08T05:30:48;11.65;;;11.10;;
19521;SDS011;9905;52.126;5.596;2023-04-08T05:33:16;13.00;;;12.25;;
19521;SDS011;9905;52.126;5.596;2023-04-08T05:35:42;12.65;;;12.05;;
19521;SDS011;9905;52.126;5.596;2023-04-08T05:38:09;13.00;;;12.40;;
19521;SDS011;9905;52.126;5.596;2023-04-08T05:40:36;13.80;;;13.10;;
19521;SDS011;9905;52.126;5.596;2023-04-08T05:43:03;13.27;;;12.65;;
19521;SDS011;9905;52.126;5.596;2023-04-08T05:45:31;13.27;;;12.57;;
19521;SDS011;9905;52.126;5.596;2023-04-08T05:47:57;13.75;;;13.10;;
19521;SDS011;9905;52.126;5.596;2023-04-08T05:50:24;13.20;;;12.60;;
19521;SDS011;9905;52.126;5.596;2023-04-08T05:52:51;14.65;;;13.85;;
19521;SDS011;9905;52.126;5.596;2023-04-08T05:55:18;13.82;;;13.18;;
19521;SDS011;9905;52.126;5.596;2023-04-08T05:57:44;14.65;;;13.95;;
19521;SDS011;9905;52.126;5.596;2023-04-08T06:00:11;14.38;;;13.68;;
19521;SDS011;9905;52.126;5.596;2023-04-08T06:02:39;14.27;;;13.57;;
19521;SDS011;9905;52.126;5.596;2023-04-08T06:05:06;14.13;;;13.43;;
19521;SDS011;9905;52.126;5.596;2023-04-08T06:07:34;14.98;;;14.15;;
19521;SDS011;9905;52.126;5.596;2023-04-08T06:10:00;15.25;;;14.43;;
19521;SDS011;9905;52.126;5.596;2023-04-08T06:12:29;15.60;;;14.70;;
19521;SDS011;9905;52.126;5.596;2023-04-08T06:14:56;16.38;;;15.38;;
19521;SDS011;9905;52.126;5.596;2023-04-08T06:17:23;15.93;;;15.00;;
19521;SDS011;9905;52.126;5.596;2023-04-08T06:19:51;15.88;;;15.07;;
19521;SDS011;9905;52.126;5.596;2023-04-08T06:22:18;15.85;;;15.00;;
19521;SDS011;9905;52.126;5.596;2023-04-08T06:24:45;17.08;;;16.08;;
19521;SDS011;9905;52.126;5.596;2023-04-08T06:27:12;17.42;;;16.23;;
19521;SDS011;9905;52.126;5.596;2023-04-08T06:29:39;18.08;;;16.98;;
19521;SDS011;9905;52.126;5.596;2023-04-08T06:32:06;18.75;;;17.45;;
19521;SDS011;9905;52.126;5.596;2023-04-08T06:34:33;20.52;;;19.02;;
19521;SDS011;9905;52.126;5.596;2023-04-08T06:37:01;19.75;;;18.35;;
19521;SDS011;9905;52.126;5.596;2023-04-08T06:39:28;20.95;;;19.10;;
19521;SDS011;9905;52.126;5.596;2023-04-08T06:41:54;21.60;;;19.90;;
19521;SDS011;9905;52.126;5.596;2023-04-08T06:44:22;20.17;;;18.55;;
19521;SDS011;9905;52.126;5.596;2023-04-08T06:46:48;20.80;;;18.67;;
19521;SDS011;9905;52.126;5.596;2023-04-08T06:49:16;19.70;;;18.00;;
19521;SDS011;9905;52.126;5.596;2023-04-08T06:51:42;18.10;;;16.73;;
19521;SDS011;9905;52.126;5.596;2023-04-08T06:54:10;19.67;;;18.05;;
19521;SDS011;9905;52.126;5.596;2023-04-08T06:56:37;19.23;;;17.52;;
19521;SDS011;9905;52.126;5.596;2023-04-08T06:59:04;17.42;;;16.00;;
19521;SDS011;9905;52.126;5.596;2023-04-08T07:01:30;18.90;;;17.35;;
19521;SDS011;9905;52.126;5.596;2023-04-08T07:03:57;18.20;;;16.65;;
19521;SDS011;9905;52.126;5.596;2023-04-08T07:06:26;19.17;;;17.20;;
19521;SDS011;9905;52.126;5.596;2023-04-08T07:08:52;18.13;;;16.65;;
19521;SDS011;9905;52.126;5.596;2023-04-08T07:11:20;16.42;;;15.13;;
19521;SDS011;9905;52.126;5.596;2023-04-08T07:13:47;16.85;;;15.55;;
19521;SDS011;9905;52.126;5.596;2023-04-08T07:16:14;16.55;;;15.30;;
19521;SDS011;9905;52.126;5.596;2023-04-08T07:18:41;15.80;;;14.60;;
19521;SDS011;9905;52.126;5.596;2023-04-08T07:21:08;15.68;;;14.52;;
19521;SDS011;9905;52.126;5.596;2023-04-08T07:23:34;14.77;;;13.77;;
19521;SDS011;9905;52.126;5.596;2023-04-08T07:26:01;14.90;;;13.63;;
19521;SDS011;9905;52.126;5.596;2023-04-08T07:28:30;15.45;;;14.25;;
19521;SDS011;9905;52.126;5.596;2023-04-08T07:31:06;14.43;;;13.50;;
19521;SDS011;9905;52.126;5.596;2023-04-08T07:33:34;12.38;;;11.68;;
19521;SDS011;9905;52.126;5.596;2023-04-08T07:36:01;12.63;;;11.88;;
19521;SDS011;9905;52.126;5.596;2023-04-08T07:38:28;14.63;;;13.27;;
19521;SDS011;9905;52.126;5.596;2023-04-08T07:40:55;15.50;;;13.25;;
19521;SDS011;9905;52.126;5.596;2023-04-08T07:43:21;13.77;;;12.63;;
19521;SDS011;9905;52.126;5.596;2023-04-08T07:45:49;14.57;;;13.40;;
19521;SDS011;9905;52.126;5.596;2023-04-08T07:48:16;15.10;;;13.90;;
19521;SDS011;9905;52.126;5.596;2023-04-08T07:50:43;13.75;;;12.85;;
19521;SDS011;9905;52.126;5.596;2023-04-08T07:53:10;14.10;;;13.10;;
19521;SDS011;9905;52.126;5.596;2023-04-08T07:55:37;12.73;;;11.88;;
19521;SDS011;9905;52.126;5.596;2023-04-08T07:58:04;14.40;;;13.38;;
19521;SDS011;9905;52.126;5.596;2023-04-08T08:00:31;12.90;;;12.00;;
19521;SDS011;9905;52.126;5.596;2023-04-08T08:02:59;13.05;;;12.10;;
19521;SDS011;9905;52.126;5.596;2023-04-08T08:05:25;13.35;;;12.30;;
19521;SDS011;9905;52.126;5.596;2023-04-08T08:07:52;14.18;;;13.05;;
19521;SDS011;9905;52.126;5.596;2023-04-08T08:10:19;13.02;;;12.13;;
19521;SDS011;9905;52.126;5.596;2023-04-08T08:12:46;13.38;;;12.48;;
19521;SDS011;9905;52.126;5.596;2023-04-08T08:15:12;13.32;;;12.07;;
19521;SDS011;9905;52.126;5.596;2023-04-08T08:17:39;13.00;;;12.10;;
19521;SDS011;9905;52.126;5.596;2023-04-08T08:20:07;13.05;;;12.10;;
19521;SDS011;9905;52.126;5.596;2023-04-08T08:22:35;13.35;;;12.07;;
19521;SDS011;9905;52.126;5.596;2023-04-08T08:25:03;12.27;;;11.48;;
19521;SDS011;9905;52.126;5.596;2023-04-08T08:27:31;12.40;;;11.50;;
19521;SDS011;9905;52.126;5.596;2023-04-08T08:29:58;11.93;;;11.02;;
19521;SDS011;9905;52.126;5.596;2023-04-08T08:32:25;11.73;;;10.93;;
19521;SDS011;9905;52.126;5.596;2023-04-08T08:34:52;12.95;;;11.82;;
19521;SDS011;9905;52.126;5.596;2023-04-08T08:37:20;11.48;;;10.75;;
19521;SDS011;9905;52.126;5.596;2023-04-08T08:39:47;11.65;;;10.85;;
19521;SDS011;9905;52.126;5.596;2023-04-08T08:42:17;12.30;;;11.32;;
19521;SDS011;9905;52.126;5.596;2023-04-08T08:44:46;12.38;;;11.38;;
19521;SDS011;9905;52.126;5.596;2023-04-08T08:47:13;11.52;;;10.63;;
19521;SDS011;9905;52.126;5.596;2023-04-08T08:49:40;10.48;;;9.77;;
19521;SDS011;9905;52.126;5.596;2023-04-08T08:52:06;11.43;;;10.52;;
19521;SDS011;9905;52.126;5.596;2023-04-08T08:54:35;11.55;;;10.65;;
19521;SDS011;9905;52.126;5.596;2023-04-08T08:57:02;10.52;;;9.82;;
19521;SDS011;9905;52.126;5.596;2023-04-08T08:59:28;10.30;;;9.50;;
19521;SDS011;9905;52.126;5.596;2023-04-08T09:01:55;9.45;;;8.82;;
19521;SDS011;9905;52.126;5.596;2023-04-08T09:04:22;10.93;;;10.10;;
19521;SDS011;9905;52.126;5.596;2023-04-08T09:06:50;10.07;;;9.38;;
19521;SDS011;9905;52.126;5.596;2023-04-08T09:09:43;10.13;;;9.43;;
19521;SDS011;9905;52.126;5.596;2023-04-08T09:12:14;10.10;;;9.40;;
19521;SDS011;9905;52.126;5.596;2023-04-08T09:14:40;10.63;;;9.82;;
19521;SDS011;9905;52.126;5.596;2023-04-08T09:17:08;10.75;;;9.85;;
19521;SDS011;9905;52.126;5.596;2023-04-08T09:19:35;10.63;;;9.63;;
19521;SDS011;9905;52.126;5.596;2023-04-08T09:22:05;10.85;;;10.05;;
19521;SDS011;9905;52.126;5.596;2023-04-08T09:24:32;10.30;;;9.43;;
19521;SDS011;9905;52.126;5.596;2023-04-08T09:27:02;10.23;;;9.20;;
19521;SDS011;9905;52.126;5.596;2023-04-08T09:29:29;8.85;;;8.20;;
19521;SDS011;9905;52.126;5.596;2023-04-08T09:31:56;9.23;;;8.48;;
19521;SDS011;9905;52.126;5.596;2023-04-08T09:34:24;9.98;;;9.27;;
19521;SDS011;9905;52.126;5.596;2023-04-08T09:36:52;9.52;;;8.63;;
19521;SDS011;9905;52.126;5.596;2023-04-08T09:39:20;9.63;;;8.70;;
19521;SDS011;9905;52.126;5.596;2023-04-08T09:41:47;8.60;;;7.97;;
19521;SDS011;9905;52.126;5.596;2023-04-08T09:44:17;8.85;;;8.20;;
19521;SDS011;9905;52.126;5.596;2023-04-08T09:46:46;10.15;;;9.32;;
19521;SDS011;9905;52.126;5.596;2023-04-08T09:49:24;8.25;;;7.70;;
19521;SDS011;9905;52.126;5.596;2023-04-08T09:51:53;9.20;;;8.55;;
19521;SDS011;9905;52.126;5.596;2023-04-08T09:54:25;9.07;;;8.38;;
19521;SDS011;9905;52.126;5.596;2023-04-08T09:57:04;9.50;;;8.88;;
19521;SDS011;9905;52.126;5.596;2023-04-08T09:59:37;8.50;;;7.78;;
19521;SDS011;9905;52.126;5.596;2023-04-08T10:02:08;8.68;;;8.00;;
19521;SDS011;9905;52.126;5.596;2023-04-08T10:04:37;8.38;;;7.88;;
19521;SDS011;9905;52.126;5.596;2023-04-08T10:07:07;8.82;;;8.13;;
19521;SDS011;9905;52.126;5.596;2023-04-08T10:09:34;9.07;;;8.35;;
19521;SDS011;9905;52.126;5.596;2023-04-08T10:12:02;9.38;;;8.68;;
19521;SDS011;9905;52.126;5.596;2023-04-08T10:14:30;9.20;;;7.32;;
19521;SDS011;9905;52.126;5.596;2023-04-08T10:19:54;8.35;;;7.70;;
19521;SDS011;9905;52.126;5.596;2023-04-08T10:25:27;7.93;;;7.32;;
19521;SDS011;9905;52.126;5.596;2023-04-08T10:27:56;8.32;;;7.68;;
19521;SDS011;9905;52.126;5.596;2023-04-08T10:30:38;8.60;;;8.00;;
19521;SDS011;9905;52.126;5.596;2023-04-08T10:33:10;8.88;;;7.97;;
19521;SDS011;9905;52.126;5.596;2023-04-08T10:35:39;7.47;;;6.97;;
19521;SDS011;9905;52.126;5.596;2023-04-08T10:38:10;7.45;;;6.95;;
19521;SDS011;9905;52.126;5.596;2023-04-08T10:40:38;8.98;;;8.18;;
19521;SDS011;9905;52.126;5.596;2023-04-08T10:43:06;8.30;;;7.70;;
19521;SDS011;9905;52.126;5.596;2023-04-08T10:45:33;8.52;;;7.72;;
19521;SDS011;9905;52.126;5.596;2023-04-08T10:50:50;8.48;;;7.68;;
19521;SDS011;9905;52.126;5.596;2023-04-08T10:53:22;8.40;;;7.70;;
19521;SDS011;9905;52.126;5.596;2023-04-08T10:55:51;7.82;;;7.28;;
19521;SDS011;9905;52.126;5.596;2023-04-08T10:58:18;8.40;;;7.80;;
19521;SDS011;9905;52.126;5.596;2023-04-08T11:00:45;7.43;;;6.72;;
19521;SDS011;9905;52.126;5.596;2023-04-08T11:03:11;8.75;;;7.95;;
19521;SDS011;9905;52.126;5.596;2023-04-08T11:05:39;7.55;;;6.95;;
19521;SDS011;9905;52.126;5.596;2023-04-08T11:08:06;7.45;;;6.95;;
19521;SDS011;9905;52.126;5.596;2023-04-08T11:10:35;8.15;;;7.20;;
19521;SDS011;9905;52.126;5.596;2023-04-08T11:13:05;7.82;;;7.22;;
19521;SDS011;9905;52.126;5.596;2023-04-08T11:15:34;6.55;;;6.05;;
19521;SDS011;9905;52.126;5.596;2023-04-08T11:18:01;6.68;;;6.07;;
19521;SDS011;9905;52.126;5.596;2023-04-08T11:20:30;6.88;;;6.05;;
19521;SDS011;9905;52.126;5.596;2023-04-08T11:22:59;6.60;;;6.00;;
19521;SDS011;9905;52.126;5.596;2023-04-08T11:25:26;7.63;;;6.25;;
19521;SDS011;9905;52.126;5.596;2023-04-08T11:27:54;6.75;;;6.22;;
19521;SDS011;9905;52.126;5.596;2023-04-08T11:30:21;6.85;;;6.25;;
19521;SDS011;9905;52.126;5.596;2023-04-08T11:32:48;6.70;;;6.20;;
19521;SDS011;9905;52.126;5.596;2023-04-08T11:35:16;6.28;;;5.80;;
19521;SDS011;9905;52.126;5.596;2023-04-08T11:37:42;7.07;;;6.47;;
19521;SDS011;9905;52.126;5.596;2023-04-08T11:40:18;6.78;;;6.28;;
19521;SDS011;9905;52.126;5.596;2023-04-08T11:42:45;6.40;;;6.00;;
19521;SDS011;9905;52.126;5.596;2023-04-08T11:45:13;5.68;;;5.25;;
19521;SDS011;9905;52.126;5.596;2023-04-08T11:47:41;6.43;;;5.93;;
19521;SDS011;9905;52.126;5.596;2023-04-08T11:50:08;6.03;;;5.53;;
19521;SDS011;9905;52.126;5.596;2023-04-08T11:52:42;6.65;;;6.03;;
19521;SDS011;9905;52.126;5.596;2023-04-08T11:55:09;5.82;;;5.32;;
19521;SDS011;9905;52.126;5.596;2023-04-08T11:57:38;6.78;;;6.28;;
19521;SDS011;9905;52.126;5.596;2023-04-08T12:00:05;6.57;;;6.03;;
19521;SDS011;9905;52.126;5.596;2023-04-08T12:02:33;5.53;;;5.03;;
19521;SDS011;9905;52.126;5.596;2023-04-08T12:05:00;6.00;;;5.53;;
19521;SDS011;9905;52.126;5.596;2023-04-08T12:07:27;6.72;;;5.85;;
19521;SDS011;9905;52.126;5.596;2023-04-08T12:09:54;6.22;;;5.65;;
19521;SDS011;9905;52.126;5.596;2023-04-08T12:12:20;6.22;;;5.57;;
19521;SDS011;9905;52.126;5.596;2023-04-08T12:14:48;6.35;;;5.75;;
19521;SDS011;9905;52.126;5.596;2023-04-08T12:17:15;6.18;;;5.68;;
19521;SDS011;9905;52.126;5.596;2023-04-08T12:19:42;5.68;;;5.18;;
19521;SDS011;9905;52.126;5.596;2023-04-08T12:22:09;7.70;;;5.45;;
19521;SDS011;9905;52.126;5.596;2023-04-08T12:24:36;6.60;;;6.10;;
19521;SDS011;9905;52.126;5.596;2023-04-08T12:27:02;6.47;;;6.05;;
19521;SDS011;9905;52.126;5.596;2023-04-08T12:29:29;6.07;;;5.47;;
19521;SDS011;9905;52.126;5.596;2023-04-08T12:31:57;6.30;;;5.90;;
19521;SDS011;9905;52.126;5.596;2023-04-08T12:34:24;5.88;;;5.47;;
19521;SDS011;9905;52.126;5.596;2023-04-08T12:36:51;6.57;;;6.07;;
19521;SDS011;9905;52.126;5.596;2023-04-08T12:39:19;6.93;;;6.10;;
19521;SDS011;9905;52.126;5.596;2023-04-08T12:41:46;6.38;;;5.93;;
19521;SDS011;9905;52.126;5.596;2023-04-08T12:44:13;7.03;;;5.80;;
19521;SDS011;9905;52.126;5.596;2023-04-08T12:46:40;5.93;;;5.47;;
19521;SDS011;9905;52.126;5.596;2023-04-08T12:49:08;6.38;;;5.88;;
19521;SDS011;9905;52.126;5.596;2023-04-08T12:51:36;5.97;;;5.57;;
19521;SDS011;9905;52.126;5.596;2023-04-08T12:54:03;6.50;;;5.93;;
19521;SDS011;9905;52.126;5.596;2023-04-08T12:56:29;5.70;;;5.30;;
19521;SDS011;9905;52.126;5.596;2023-04-08T12:58:56;5.43;;;5.03;;
19521;SDS011;9905;52.126;5.596;2023-04-08T13:01:23;5.55;;;5.15;;
19521;SDS011;9905;52.126;5.596;2023-04-08T13:03:50;4.97;;;4.68;;
19521;SDS011;9905;52.126;5.596;2023-04-08T13:06:18;5.68;;;5.38;;
19521;SDS011;9905;52.126;5.596;2023-04-08T13:08:45;6.40;;;6.00;;
19521;SDS011;9905;52.126;5.596;2023-04-08T13:11:12;5.68;;;5.22;;
19521;SDS011;9905;52.126;5.596;2023-04-08T13:13:39;5.72;;;5.25;;
19521;SDS011;9905;52.126;5.596;2023-04-08T13:16:06;6.40;;;5.88;;
19521;SDS011;9905;52.126;5.596;2023-04-08T13:18:34;6.53;;;5.93;;
19521;SDS011;9905;52.126;5.596;2023-04-08T13:21:01;5.95;;;5.55;;
19521;SDS011;9905;52.126;5.596;2023-04-08T13:23:29;5.93;;;5.53;;
19521;SDS011;9905;52.126;5.596;2023-04-08T13:25:55;6.00;;;5.60;;
19521;SDS011;9905;52.126;5.596;2023-04-08T13:28:22;6.88;;;5.47;;
19521;SDS011;9905;52.126;5.596;2023-04-08T13:30:49;6.18;;;5.35;;
19521;SDS011;9905;52.126;5.596;2023-04-08T13:33:16;8.90;;;6.20;;
19521;SDS011;9905;52.126;5.596;2023-04-08T13:35:42;5.43;;;5.00;;
19521;SDS011;9905;52.126;5.596;2023-04-08T13:38:09;6.03;;;5.63;;
19521;SDS011;9905;52.126;5.596;2023-04-08T13:40:38;5.78;;;5.40;;
19521;SDS011;9905;52.126;5.596;2023-04-08T13:43:04;6.50;;;5.68;;
19521;SDS011;9905;52.126;5.596;2023-04-08T13:45:32;6.40;;;5.90;;
19521;SDS011;9905;52.126;5.596;2023-04-08T13:47:58;6.57;;;6.18;;
19521;SDS011;9905;52.126;5.596;2023-04-08T13:50:25;6.20;;;5.70;;
19521;SDS011;9905;52.126;5.596;2023-04-08T13:52:52;5.68;;;5.35;;
19521;SDS011;9905;52.126;5.596;2023-04-08T13:55:19;5.57;;;5.25;;
19521;SDS011;9905;52.126;5.596;2023-04-08T13:57:47;5.93;;;5.43;;
19521;SDS011;9905;52.126;5.596;2023-04-08T14:00:14;5.88;;;5.47;;
19521;SDS011;9905;52.126;5.596;2023-04-08T14:02:41;5.63;;;5.22;;
19521;SDS011;9905;52.126;5.596;2023-04-08T14:05:08;5.55;;;5.15;;
19521;SDS011;9905;52.126;5.596;2023-04-08T14:07:34;6.68;;;6.07;;
19521;SDS011;9905;52.126;5.596;2023-04-08T14:10:01;5.82;;;5.43;;
19521;SDS011;9905;52.126;5.596;2023-04-08T14:12:28;5.57;;;5.07;;
19521;SDS011;9905;52.126;5.596;2023-04-08T14:14:56;7.13;;;5.65;;
19521;SDS011;9905;52.126;5.596;2023-04-08T14:17:23;6.13;;;5.63;;
19521;SDS011;9905;52.126;5.596;2023-04-08T14:19:50;5.75;;;5.30;;
19521;SDS011;9905;52.126;5.596;2023-04-08T14:22:16;6.75;;;6.18;;
19521;SDS011;9905;52.126;5.596;2023-04-08T14:24:43;6.07;;;5.68;;
19521;SDS011;9905;52.126;5.596;2023-04-08T14:27:10;5.47;;;5.13;;
19521;SDS011;9905;52.126;5.596;2023-04-08T14:29:36;10.75;;;7.45;;
19521;SDS011;9905;52.126;5.596;2023-04-08T14:32:05;15.77;;;9.20;;
19521;SDS011;9905;52.126;5.596;2023-04-08T14:34:31;7.32;;;6.47;;
19521;SDS011;9905;52.126;5.596;2023-04-08T14:36:58;6.90;;;6.30;;
19521;SDS011;9905;52.126;5.596;2023-04-08T14:39:25;9.88;;;7.20;;
19521;SDS011;9905;52.126;5.596;2023-04-08T14:41:52;9.95;;;8.43;;
19521;SDS011;9905;52.126;5.596;2023-04-08T14:44:19;8.13;;;6.93;;
19521;SDS011;9905;52.126;5.596;2023-04-08T14:46:45;6.07;;;5.68;;
19521;SDS011;9905;52.126;5.596;2023-04-08T14:49:13;6.10;;;5.72;;
19521;SDS011;9905;52.126;5.596;2023-04-08T14:51:40;5.90;;;5.50;;
19521;SDS011;9905;52.126;5.596;2023-04-08T14:54:07;6.47;;;6.05;;
19521;SDS011;9905;52.126;5.596;2023-04-08T14:56:34;6.40;;;5.90;;